x

Passage Island, Mi (pilm4) Weather Station

5:00am - Tue 27th Jan 2015 All times are CST. -6 hours from GMT.

  • Wind
    10mph, 11mph gusts
  • Air Temp 26°f
  • Sea Pressure 1022mb
  • Passage Island, Mi
  • Passage Island, Mi

More Historic Weather Station data

Upgrade to MSW Pro to gain access to the past 30 days of data for over 8000 Wavebouys and Weather Stations around the globe.

Join Pro

Comparision Forecast

View Surf forecast
   
Tue 01/27 5:00am 10 11 mph 1022mb 26f
4:00am 10 13 mph 1021.7mb 26f
3:00am 13 14 mph 1021mb 26f
2:00am 15 16 mph 1020.4mb 27f
1:00am 9 10 mph 1019.7mb 27f
12:00am 13 14 mph 1018.9mb 27f
Mon 01/26 11:00pm 13 15 mph 1018.2mb 27f
10:00pm 11 14 mph 1017.3mb 26f
9:00pm 13 14 mph 1016.6mb 26f
8:00pm 14
mph
1016mb 26f
7:00pm 14 15 mph 1015.4mb 26f
6:00pm 18 20 mph 1014.4mb 26f
5:00pm 17 18 mph 1013.7mb 25f
4:00pm 15 16 mph 1013.1mb 25f
3:00pm 16 17 mph 1012.3mb 25f
2:00pm 22 24 mph 1011.1mb 25f
1:00pm 20 22 mph 1010.9mb 24f
12:00pm 21 23 mph 1011.1mb 23f
11:00am 18 21 mph 1011.6mb 23f
10:00am 22 24 mph 1010.9mb 24f
9:00am 20 23 mph 1011mb 24f
8:00am 22 24 mph 1010.9mb 24f
7:00am 25 29 mph 1011.3mb 24f
6:00am 24 28 mph 1011.6mb 24f
5:00am 15 17 mph 1012.2mb 24f
4:00am 15 18 mph 1013.4mb 23f
3:00am 15 21 mph 1014.5mb 22f
2:00am 15 18 mph 1015.1mb 21f
1:00am 16 18 mph 1016.2mb 20f
12:00am 16 20 mph 1017.2mb 20f
Sun 01/25 11:00pm 13 14 mph 1018mb 19f
10:00pm 10 13 mph 1019mb 18f
9:00pm 9 10 mph 1019.9mb 17f
8:00pm 10 14 mph 1020.2mb 15f
7:00pm  -  1 mph 1022.4mb 14f
6:00pm 2 3 mph 1022.5mb 13f
5:00pm 1 3 mph 1022.4mb 13f
4:00pm  -  mph 1022.1mb 12f
3:00pm 5 8 mph 1022.6mb 12f
2:00pm 3 5 mph 1022.7mb 11f
1:00pm 5 6 mph 1023.6mb 11f
12:00pm 6 8 mph 1023.6mb 11f
11:00am 8 10 mph 1023.7mb 10f
10:00am 7 14 mph 1023.3mb 9f
9:00am 14 17 mph 1022.4mb 8f
8:00am 9 13 mph 1022.1mb 8f
7:00am 10 14 mph 1021.8mb 7f
6:00am 13 17 mph 1021.5mb 7f
5:00am 10 14 mph 1021.1mb 7f
4:00am 13 18 mph 1020.4mb 7f
3:00am 11 16 mph 1019.7mb 7f
2:00am 11 15 mph 1019.5mb 7f
1:00am 7 10 mph 1018.6mb 8f
12:00am 9 18 mph 1017.7mb 9f
Sat 01/24 11:00pm 11 15 mph 1016.6mb 10f
10:00pm 13 17 mph 1015.3mb 10f
9:00pm 14 20 mph 1014.7mb 10f
8:00pm 14 18 mph 1014.3mb 9f
7:00pm 16 22 mph 1013.4mb 10f
6:00pm 16 22 mph 1012.5mb 11f
5:00pm 16 28 mph 1011.6mb 12f
4:00pm 15 23 mph 1010.2mb 12f
3:00pm 9 16 mph 1009.5mb 13f
2:00pm 20 33 mph 1008.3mb 14f
1:00pm 16 28 mph 1008.3mb 13f
12:00pm 17 26 mph 1007.6mb 15f
11:00am 11 21 mph 1007.4mb 16f
10:00am 18 25 mph 1007.6mb 16f
9:00am 16 36 mph 1006.6mb 17f
8:00am 21 36 mph 1004.9mb 20f
7:00am 13 22 mph 1004.7mb 21f
6:00am 15 21 mph 1004.2mb 25f
5:00am 11 18 mph 1003.3mb 30f
4:00am 23 24 mph 1002.4mb 34f
3:00am 20 22 mph 1002.4mb 35f
2:00am 21 22 mph 1002.7mb 35f
1:00am 17 18 mph 1003.1mb 34f
12:00am 18 20 mph 1003.6mb 35f
Fri 01/23 11:00pm 21 22 mph 1004.2mb 34f
10:00pm 21
mph
1004.3mb 35f
9:00pm 22
mph
1004.8mb 35f
8:00pm 22 23 mph 1005.5mb 35f
7:00pm 15 16 mph 1005.9mb 34f
6:00pm 11 13 mph 1006.1mb 35f
5:00pm 14
mph
1005.8mb 35f
4:00pm 18 20 mph 1005.9mb 35f
3:00pm 21 22 mph 1006mb 33f
2:00pm 22 23 mph 1005.6mb 34f
1:00pm 26 29 mph 1005.9mb 34f